Aérodrome :
LOGIN :

S'inscrire | Disclaimer

   EN    FR    IT 

 










Légende :    VFR   VFR Marginal   IFR   IFR Intensif   IFR Très Intensif
Visi : 
Plafond : 
>= 8 km
>= 3000ft
5 à 8 km
1000 à 3000 ft
1500m à 5 km
500 à 1000 ft
800 à 1500m
200 à 500 ft
< 800m
< 200 ft
Symboles :   Orages  Brouillard  Fortes neiges  Fortes précipitations  Vent > 20 kt
SIGMETs :   Divers  Orages  Givrage  Turbulence  Onde Orograph.  Cendres Volcan.







- Altitude de l'aérodrome : 433 ft
- Voir les cartes d'approche


LFOC - Chateaudun

DERNIER METAR :
  • 290530Z AUTO VRB02KT 0250 0200 R28/0225N FG VV/// 02/02 Q1017

METARs EXPIRÉS :
  • 290500Z AUTO 14002KT 0200 R28/0250N FG VV/// 01/01 Q1017
  • 290430Z AUTO 13001KT 0400 0300 R28/0225D FG VV/// 01/M00 Q1017
  • 290400Z AUTO 00000KT 0450 R28/0450D FG NSC 01/00 Q1017
  • 290330Z AUTO 20001KT 3100 0900 R28/P2000 BCFG NSC 01/01 Q1017
  • 290300Z AUTO 04002KT 5000 0800 R28/0900D BCFG NSC 04/04 Q1017

TAF TAF LFOC
Valide du 28 à 09h jusqu'au 29 à 09h UTC


280800Z 2809/2909 26008KT 9999 SCT040 BKN060
BECMG 2809/2811 BKN025TCU
TEMPO 2811/2821 3000 SHRA SCT015 BKN020TCU
BECMG 2821/2822 BKN025
BECMG 2901/2903 2000 BR
PROB30
TEMPO 2903/2906 0900 FG
Pas de NOTAMs connus pour ce terrain.



MET'MAP, la Météo Aéronautique d'un coup d'oeil ! - Copyright ORBIFLY Décembre 2007 - Disclaimer

ORBIFLY MET'MAP TEAM :

Programmation & Développement : Alexandra Zaïnal
Conception & Développement : Baudouin d'Aumeries
Co-Programmation & Développement : Marc-Olivier Méhu
Soutien technique & logistique : Manuel Goepfert

Contact : metmap@orbifly.com




SOURCES & CREDITS :

   NOAA